sensor_id;sensor_type;location;lat;lon;timestamp;temperature;humidity
20200;DHT22;36284;37.236;-121.934;2023-05-10T00:01:06;20.30;99.90
20200;DHT22;36284;37.236;-121.934;2023-05-10T00:03:34;19.80;99.90
20200;DHT22;36284;37.236;-121.934;2023-05-10T00:06:00;20.40;99.90
20200;DHT22;36284;37.236;-121.934;2023-05-10T00:08:27;20.70;99.90
20200;DHT22;36284;37.236;-121.934;2023-05-10T00:10:54;20.20;99.90
20200;DHT22;36284;37.236;-121.934;2023-05-10T00:13:22;19.80;99.90
20200;DHT22;36284;37.236;-121.934;2023-05-10T00:15:49;20.00;99.90
20200;DHT22;36284;37.236;-121.934;2023-05-10T00:18:16;20.30;99.90
20200;DHT22;36284;37.236;-121.934;2023-05-10T00:20:43;20.30;99.90
20200;DHT22;36284;37.236;-121.934;2023-05-10T00:23:12;20.40;99.90
20200;DHT22;36284;37.236;-121.934;2023-05-10T00:25:39;20.10;99.90
20200;DHT22;36284;37.236;-121.934;2023-05-10T00:28:06;19.90;99.90
20200;DHT22;36284;37.236;-121.934;2023-05-10T00:30:33;20.20;99.90
20200;DHT22;36284;37.236;-121.934;2023-05-10T00:33:00;20.40;99.90
20200;DHT22;36284;37.236;-121.934;2023-05-10T00:35:27;20.30;99.90
20200;DHT22;36284;37.236;-121.934;2023-05-10T00:37:54;20.20;99.90
20200;DHT22;36284;37.236;-121.934;2023-05-10T00:40:21;20.10;99.90
20200;DHT22;36284;37.236;-121.934;2023-05-10T00:42:48;20.30;99.90
20200;DHT22;36284;37.236;-121.934;2023-05-10T00:45:15;19.90;99.90
20200;DHT22;36284;37.236;-121.934;2023-05-10T00:47:42;19.70;99.90
20200;DHT22;36284;37.236;-121.934;2023-05-10T00:50:09;19.70;99.90
20200;DHT22;36284;37.236;-121.934;2023-05-10T00:52:36;19.60;99.90
20200;DHT22;36284;37.236;-121.934;2023-05-10T00:55:04;19.50;99.90
20200;DHT22;36284;37.236;-121.934;2023-05-10T00:57:31;18.90;99.90
20200;DHT22;36284;37.236;-121.934;2023-05-10T00:59:59;18.70;99.90
20200;DHT22;36284;37.236;-121.934;2023-05-10T01:02:26;18.70;99.90
20200;DHT22;36284;37.236;-121.934;2023-05-10T01:04:53;18.60;99.90
20200;DHT22;36284;37.236;-121.934;2023-05-10T01:07:20;18.50;99.90
20200;DHT22;36284;37.236;-121.934;2023-05-10T01:09:47;18.50;99.90
20200;DHT22;36284;37.236;-121.934;2023-05-10T01:12:15;18.70;99.90
20200;DHT22;36284;37.236;-121.934;2023-05-10T01:14:42;18.30;99.90
20200;DHT22;36284;37.236;-121.934;2023-05-10T01:17:10;18.20;99.90
20200;DHT22;36284;37.236;-121.934;2023-05-10T01:19:38;18.10;99.90
20200;DHT22;36284;37.236;-121.934;2023-05-10T01:31:38;17.80;99.90
20200;DHT22;36284;37.236;-121.934;2023-05-10T01:34:23;17.80;99.90
20200;DHT22;36284;37.236;-121.934;2023-05-10T01:36:58;17.60;99.90
20200;DHT22;36284;37.236;-121.934;2023-05-10T01:39:49;17.70;99.90
20200;DHT22;36284;37.236;-121.934;2023-05-10T01:42:25;17.80;99.90
20200;DHT22;36284;37.236;-121.934;2023-05-10T01:47:38;17.30;99.90
20200;DHT22;36284;37.236;-121.934;2023-05-10T01:50:17;17.10;99.90
20200;DHT22;36284;37.236;-121.934;2023-05-10T01:52:49;17.30;99.90
20200;DHT22;36284;37.236;-121.934;2023-05-10T01:55:18;17.30;99.90
20200;DHT22;36284;37.236;-121.934;2023-05-10T01:57:50;17.20;99.90
20200;DHT22;36284;37.236;-121.934;2023-05-10T02:00:18;17.00;99.90
20200;DHT22;36284;37.236;-121.934;2023-05-10T02:02:48;16.90;99.90
20200;DHT22;36284;37.236;-121.934;2023-05-10T02:05:16;16.80;99.90
20200;DHT22;36284;37.236;-121.934;2023-05-10T02:07:44;16.60;99.90
20200;DHT22;36284;37.236;-121.934;2023-05-10T02:10:12;16.60;99.90
20200;DHT22;36284;37.236;-121.934;2023-05-10T02:12:42;16.60;99.90
20200;DHT22;36284;37.236;-121.934;2023-05-10T02:15:12;16.50;99.90
20200;DHT22;36284;37.236;-121.934;2023-05-10T02:17:40;16.40;99.90
20200;DHT22;36284;37.236;-121.934;2023-05-10T02:20:09;16.30;99.90
20200;DHT22;36284;37.236;-121.934;2023-05-10T02:22:37;16.20;99.90
20200;DHT22;36284;37.236;-121.934;2023-05-10T02:25:07;16.10;99.90
20200;DHT22;36284;37.236;-121.934;2023-05-10T02:27:37;16.00;99.90
20200;DHT22;36284;37.236;-121.934;2023-05-10T02:30:05;15.90;99.90
20200;DHT22;36284;37.236;-121.934;2023-05-10T02:32:33;15.80;99.90
20200;DHT22;36284;37.236;-121.934;2023-05-10T02:37:29;15.70;99.90
20200;DHT22;36284;37.236;-121.934;2023-05-10T02:39:57;15.60;99.90
20200;DHT22;36284;37.236;-121.934;2023-05-10T02:42:27;15.60;99.90
20200;DHT22;36284;37.236;-121.934;2023-05-10T02:45:00;15.50;99.90
20200;DHT22;36284;37.236;-121.934;2023-05-10T02:47:31;15.30;99.90
20200;DHT22;36284;37.236;-121.934;2023-05-10T02:49:58;15.10;99.90
20200;DHT22;36284;37.236;-121.934;2023-05-10T02:52:29;15.00;99.90
20200;DHT22;36284;37.236;-121.934;2023-05-10T02:55:01;15.00;99.90
20200;DHT22;36284;37.236;-121.934;2023-05-10T02:57:33;14.80;99.90
20200;DHT22;36284;37.236;-121.934;2023-05-10T03:00:01;14.70;99.90
20200;DHT22;36284;37.236;-121.934;2023-05-10T03:02:29;14.60;99.90
20200;DHT22;36284;37.236;-121.934;2023-05-10T03:04:57;14.50;99.90
20200;DHT22;36284;37.236;-121.934;2023-05-10T03:07:24;14.30;99.90
20200;DHT22;36284;37.236;-121.934;2023-05-10T03:09:52;14.20;99.90
20200;DHT22;36284;37.236;-121.934;2023-05-10T03:13:16;14.10;99.90
20200;DHT22;36284;37.236;-121.934;2023-05-10T03:16:04;13.90;99.90
20200;DHT22;36284;37.236;-121.934;2023-05-10T03:19:12;13.70;99.90
20200;DHT22;36284;37.236;-121.934;2023-05-10T03:21:47;13.60;99.90
20200;DHT22;36284;37.236;-121.934;2023-05-10T03:24:17;13.40;99.90
20200;DHT22;36284;37.236;-121.934;2023-05-10T03:26:45;13.30;99.90
20200;DHT22;36284;37.236;-121.934;2023-05-10T03:29:13;13.10;99.90
20200;DHT22;36284;37.236;-121.934;2023-05-10T03:31:41;13.00;99.90
20200;DHT22;36284;37.236;-121.934;2023-05-10T03:34:08;12.90;99.90
20200;DHT22;36284;37.236;-121.934;2023-05-10T03:36:35;12.70;99.90
20200;DHT22;36284;37.236;-121.934;2023-05-10T03:39:02;12.70;99.90
20200;DHT22;36284;37.236;-121.934;2023-05-10T03:41:29;12.70;99.90
20200;DHT22;36284;37.236;-121.934;2023-05-10T03:43:56;12.50;99.90
20200;DHT22;36284;37.236;-121.934;2023-05-10T03:46:23;12.50;99.90
20200;DHT22;36284;37.236;-121.934;2023-05-10T03:48:50;12.40;99.90
20200;DHT22;36284;37.236;-121.934;2023-05-10T03:51:17;12.40;99.90
20200;DHT22;36284;37.236;-121.934;2023-05-10T03:53:44;12.30;99.90
20200;DHT22;36284;37.236;-121.934;2023-05-10T03:56:11;12.20;99.90
20200;DHT22;36284;37.236;-121.934;2023-05-10T03:58:38;12.10;99.90
20200;DHT22;36284;37.236;-121.934;2023-05-10T04:01:05;12.20;99.90
20200;DHT22;36284;37.236;-121.934;2023-05-10T04:03:34;12.00;99.90
20200;DHT22;36284;37.236;-121.934;2023-05-10T04:06:02;11.90;99.90
20200;DHT22;36284;37.236;-121.934;2023-05-10T04:08:29;11.90;99.90
20200;DHT22;36284;37.236;-121.934;2023-05-10T04:11:07;11.80;99.90
20200;DHT22;36284;37.236;-121.934;2023-05-10T04:13:35;11.80;99.90
20200;DHT22;36284;37.236;-121.934;2023-05-10T04:16:02;11.60;99.90
20200;DHT22;36284;37.236;-121.934;2023-05-10T04:18:30;11.60;99.90
20200;DHT22;36284;37.236;-121.934;2023-05-10T04:20:58;11.60;99.90
20200;DHT22;36284;37.236;-121.934;2023-05-10T04:23:25;11.50;99.90
20200;DHT22;36284;37.236;-121.934;2023-05-10T04:25:52;11.50;99.90
20200;DHT22;36284;37.236;-121.934;2023-05-10T04:28:19;11.40;99.90
20200;DHT22;36284;37.236;-121.934;2023-05-10T04:30:46;11.30;99.90
20200;DHT22;36284;37.236;-121.934;2023-05-10T04:33:13;11.30;99.90
20200;DHT22;36284;37.236;-121.934;2023-05-10T04:35:41;11.30;99.90
20200;DHT22;36284;37.236;-121.934;2023-05-10T04:38:08;11.20;99.90
20200;DHT22;36284;37.236;-121.934;2023-05-10T04:40:35;11.10;99.90
20200;DHT22;36284;37.236;-121.934;2023-05-10T04:43:02;11.10;99.90
20200;DHT22;36284;37.236;-121.934;2023-05-10T04:45:29;11.10;99.90
20200;DHT22;36284;37.236;-121.934;2023-05-10T04:47:56;11.00;99.90
20200;DHT22;36284;37.236;-121.934;2023-05-10T04:50:22;10.90;99.90
20200;DHT22;36284;37.236;-121.934;2023-05-10T04:52:49;11.00;99.90
20200;DHT22;36284;37.236;-121.934;2023-05-10T04:55:16;10.90;99.90
20200;DHT22;36284;37.236;-121.934;2023-05-10T04:57:43;10.90;99.90
20200;DHT22;36284;37.236;-121.934;2023-05-10T05:00:11;10.80;99.90
20200;DHT22;36284;37.236;-121.934;2023-05-10T05:02:41;10.90;99.90
20200;DHT22;36284;37.236;-121.934;2023-05-10T05:05:08;10.90;99.90
20200;DHT22;36284;37.236;-121.934;2023-05-10T05:07:35;10.90;99.90
20200;DHT22;36284;37.236;-121.934;2023-05-10T05:10:02;10.80;99.90
20200;DHT22;36284;37.236;-121.934;2023-05-10T05:12:29;10.80;99.90
20200;DHT22;36284;37.236;-121.934;2023-05-10T05:14:56;10.80;99.90
20200;DHT22;36284;37.236;-121.934;2023-05-10T05:17:23;10.80;99.90
20200;DHT22;36284;37.236;-121.934;2023-05-10T05:19:50;10.80;99.90
20200;DHT22;36284;37.236;-121.934;2023-05-10T05:22:17;10.70;99.90
20200;DHT22;36284;37.236;-121.934;2023-05-10T05:24:45;10.60;99.90
20200;DHT22;36284;37.236;-121.934;2023-05-10T05:29:39;10.40;99.90
20200;DHT22;36284;37.236;-121.934;2023-05-10T05:32:06;10.40;99.90
20200;DHT22;36284;37.236;-121.934;2023-05-10T05:34:34;10.40;99.90
20200;DHT22;36284;37.236;-121.934;2023-05-10T05:37:01;10.30;99.90
20200;DHT22;36284;37.236;-121.934;2023-05-10T05:39:28;10.30;99.90
20200;DHT22;36284;37.236;-121.934;2023-05-10T05:41:55;10.30;99.90
20200;DHT22;36284;37.236;-121.934;2023-05-10T05:44:22;10.10;99.90
20200;DHT22;36284;37.236;-121.934;2023-05-10T05:46:49;10.20;99.90
20200;DHT22;36284;37.236;-121.934;2023-05-10T05:49:16;10.10;99.90
20200;DHT22;36284;37.236;-121.934;2023-05-10T05:51:43;10.10;99.90
20200;DHT22;36284;37.236;-121.934;2023-05-10T05:54:10;10.10;99.90
20200;DHT22;36284;37.236;-121.934;2023-05-10T05:56:37;10.20;99.90
20200;DHT22;36284;37.236;-121.934;2023-05-10T05:59:04;10.20;99.90
20200;DHT22;36284;37.236;-121.934;2023-05-10T06:01:31;10.10;99.90
20200;DHT22;36284;37.236;-121.934;2023-05-10T06:03:58;10.20;99.90
20200;DHT22;36284;37.236;-121.934;2023-05-10T06:06:25;10.20;99.90
20200;DHT22;36284;37.236;-121.934;2023-05-10T06:08:52;10.20;99.90
20200;DHT22;36284;37.236;-121.934;2023-05-10T06:11:19;10.20;99.90
20200;DHT22;36284;37.236;-121.934;2023-05-10T06:13:47;10.20;99.90
20200;DHT22;36284;37.236;-121.934;2023-05-10T06:16:14;10.10;99.90
20200;DHT22;36284;37.236;-121.934;2023-05-10T06:18:41;10.00;99.90
20200;DHT22;36284;37.236;-121.934;2023-05-10T06:21:08;10.00;99.90
20200;DHT22;36284;37.236;-121.934;2023-05-10T06:23:35;9.90;99.90
20200;DHT22;36284;37.236;-121.934;2023-05-10T06:26:02;9.90;99.90
20200;DHT22;36284;37.236;-121.934;2023-05-10T06:28:29;9.90;99.90
20200;DHT22;36284;37.236;-121.934;2023-05-10T06:33:25;9.80;99.90
20200;DHT22;36284;37.236;-121.934;2023-05-10T06:35:52;9.80;99.90
20200;DHT22;36284;37.236;-121.934;2023-05-10T06:38:19;9.90;99.90
20200;DHT22;36284;37.236;-121.934;2023-05-10T06:40:46;9.60;99.90
20200;DHT22;36284;37.236;-121.934;2023-05-10T06:43:13;9.60;99.90
20200;DHT22;36284;37.236;-121.934;2023-05-10T06:45:40;9.50;99.90
20200;DHT22;36284;37.236;-121.934;2023-05-10T06:48:07;9.50;99.90
20200;DHT22;36284;37.236;-121.934;2023-05-10T06:50:34;9.50;99.90
20200;DHT22;36284;37.236;-121.934;2023-05-10T06:53:01;9.40;99.90
20200;DHT22;36284;37.236;-121.934;2023-05-10T06:55:28;9.50;99.90
20200;DHT22;36284;37.236;-121.934;2023-05-10T06:57:55;9.60;99.90
20200;DHT22;36284;37.236;-121.934;2023-05-10T07:00:23;9.60;99.90
20200;DHT22;36284;37.236;-121.934;2023-05-10T07:02:49;9.60;99.90
20200;DHT22;36284;37.236;-121.934;2023-05-10T07:05:17;9.50;99.90
20200;DHT22;36284;37.236;-121.934;2023-05-10T07:07:44;9.40;99.90
20200;DHT22;36284;37.236;-121.934;2023-05-10T07:10:11;9.20;99.90
20200;DHT22;36284;37.236;-121.934;2023-05-10T07:12:38;9.10;99.90
20200;DHT22;36284;37.236;-121.934;2023-05-10T07:15:05;9.10;99.90
20200;DHT22;36284;37.236;-121.934;2023-05-10T07:17:32;9.10;99.90
20200;DHT22;36284;37.236;-121.934;2023-05-10T07:20:02;9.10;99.90
20200;DHT22;36284;37.236;-121.934;2023-05-10T07:22:29;9.00;99.90
20200;DHT22;36284;37.236;-121.934;2023-05-10T07:24:56;8.90;99.90
20200;DHT22;36284;37.236;-121.934;2023-05-10T07:27:23;8.80;99.90
20200;DHT22;36284;37.236;-121.934;2023-05-10T07:29:50;8.80;99.90
20200;DHT22;36284;37.236;-121.934;2023-05-10T07:32:17;8.70;99.90
20200;DHT22;36284;37.236;-121.934;2023-05-10T07:34:44;8.80;99.90
20200;DHT22;36284;37.236;-121.934;2023-05-10T07:37:11;8.80;99.90
20200;DHT22;36284;37.236;-121.934;2023-05-10T07:39:38;8.90;99.90
20200;DHT22;36284;37.236;-121.934;2023-05-10T07:42:05;8.90;99.90
20200;DHT22;36284;37.236;-121.934;2023-05-10T07:44:32;8.90;99.90
20200;DHT22;36284;37.236;-121.934;2023-05-10T07:46:59;8.90;99.90
20200;DHT22;36284;37.236;-121.934;2023-05-10T07:49:26;8.80;99.90
20200;DHT22;36284;37.236;-121.934;2023-05-10T07:51:53;8.70;99.90
20200;DHT22;36284;37.236;-121.934;2023-05-10T07:54:20;8.70;99.90
20200;DHT22;36284;37.236;-121.934;2023-05-10T07:56:47;8.70;99.90
20200;DHT22;36284;37.236;-121.934;2023-05-10T07:59:16;8.70;99.90
20200;DHT22;36284;37.236;-121.934;2023-05-10T08:01:43;8.60;99.90
20200;DHT22;36284;37.236;-121.934;2023-05-10T08:04:10;8.70;99.90
20200;DHT22;36284;37.236;-121.934;2023-05-10T08:06:38;8.50;99.90
20200;DHT22;36284;37.236;-121.934;2023-05-10T08:09:05;8.50;99.90
20200;DHT22;36284;37.236;-121.934;2023-05-10T08:11:32;8.50;99.90
20200;DHT22;36284;37.236;-121.934;2023-05-10T08:13:59;8.40;99.90
20200;DHT22;36284;37.236;-121.934;2023-05-10T08:16:26;8.30;99.90
20200;DHT22;36284;37.236;-121.934;2023-05-10T08:18:53;8.30;99.90
20200;DHT22;36284;37.236;-121.934;2023-05-10T08:21:21;8.30;99.90
20200;DHT22;36284;37.236;-121.934;2023-05-10T08:23:48;8.20;99.90
20200;DHT22;36284;37.236;-121.934;2023-05-10T08:26:15;8.20;99.90
20200;DHT22;36284;37.236;-121.934;2023-05-10T08:28:42;8.20;99.90
20200;DHT22;36284;37.236;-121.934;2023-05-10T08:31:09;8.20;99.90
20200;DHT22;36284;37.236;-121.934;2023-05-10T08:33:36;8.20;99.90
20200;DHT22;36284;37.236;-121.934;2023-05-10T08:36:03;8.40;99.90
20200;DHT22;36284;37.236;-121.934;2023-05-10T08:38:30;8.50;99.90
20200;DHT22;36284;37.236;-121.934;2023-05-10T08:40:57;8.50;99.90
20200;DHT22;36284;37.236;-121.934;2023-05-10T08:43:27;8.40;99.90
20200;DHT22;36284;37.236;-121.934;2023-05-10T08:46:00;8.40;99.90
20200;DHT22;36284;37.236;-121.934;2023-05-10T08:48:30;8.50;99.90
20200;DHT22;36284;37.236;-121.934;2023-05-10T08:51:00;8.50;99.90
20200;DHT22;36284;37.236;-121.934;2023-05-10T08:53:29;8.40;99.90
20200;DHT22;36284;37.236;-121.934;2023-05-10T08:55:58;8.20;99.90
20200;DHT22;36284;37.236;-121.934;2023-05-10T08:58:25;8.10;99.90
20200;DHT22;36284;37.236;-121.934;2023-05-10T09:00:53;8.00;99.90
20200;DHT22;36284;37.236;-121.934;2023-05-10T09:03:20;8.30;99.90
20200;DHT22;36284;37.236;-121.934;2023-05-10T09:05:49;8.30;99.90
20200;DHT22;36284;37.236;-121.934;2023-05-10T09:08:20;8.10;99.90
20200;DHT22;36284;37.236;-121.934;2023-05-10T09:10:48;8.10;99.90
20200;DHT22;36284;37.236;-121.934;2023-05-10T09:13:15;8.00;99.90
20200;DHT22;36284;37.236;-121.934;2023-05-10T09:15:44;8.00;99.90
20200;DHT22;36284;37.236;-121.934;2023-05-10T09:18:11;7.90;99.90
20200;DHT22;36284;37.236;-121.934;2023-05-10T09:20:38;7.90;99.90
20200;DHT22;36284;37.236;-121.934;2023-05-10T09:23:05;7.80;99.90
20200;DHT22;36284;37.236;-121.934;2023-05-10T09:25:33;7.80;99.90
20200;DHT22;36284;37.236;-121.934;2023-05-10T09:28:00;7.60;99.90
20200;DHT22;36284;37.236;-121.934;2023-05-10T09:30:31;7.70;99.90
20200;DHT22;36284;37.236;-121.934;2023-05-10T09:32:59;7.70;99.90
20200;DHT22;36284;37.236;-121.934;2023-05-10T09:35:28;7.70;99.90
20200;DHT22;36284;37.236;-121.934;2023-05-10T09:40:25;7.70;99.90
20200;DHT22;36284;37.236;-121.934;2023-05-10T09:42:58;7.70;99.90
20200;DHT22;36284;37.236;-121.934;2023-05-10T09:45:27;7.60;99.90
20200;DHT22;36284;37.236;-121.934;2023-05-10T09:47:54;7.40;99.90
20200;DHT22;36284;37.236;-121.934;2023-05-10T09:50:22;7.40;99.90
20200;DHT22;36284;37.236;-121.934;2023-05-10T09:52:52;7.50;99.90
20200;DHT22;36284;37.236;-121.934;2023-05-10T09:55:37;7.30;99.90
20200;DHT22;36284;37.236;-121.934;2023-05-10T09:58:04;7.30;99.90
20200;DHT22;36284;37.236;-121.934;2023-05-10T10:00:40;7.30;99.90
20200;DHT22;36284;37.236;-121.934;2023-05-10T10:03:13;7.20;99.90
20200;DHT22;36284;37.236;-121.934;2023-05-10T10:05:41;7.20;99.90
20200;DHT22;36284;37.236;-121.934;2023-05-10T10:08:10;7.20;99.90
20200;DHT22;36284;37.236;-121.934;2023-05-10T10:10:38;7.30;99.90
20200;DHT22;36284;37.236;-121.934;2023-05-10T10:13:08;7.10;99.90
20200;DHT22;36284;37.236;-121.934;2023-05-10T10:15:35;7.00;99.90
20200;DHT22;36284;37.236;-121.934;2023-05-10T10:18:02;7.00;99.90
20200;DHT22;36284;37.236;-121.934;2023-05-10T10:20:30;7.10;99.90
20200;DHT22;36284;37.236;-121.934;2023-05-10T10:22:57;7.10;99.90
20200;DHT22;36284;37.236;-121.934;2023-05-10T10:25:25;7.20;99.90
20200;DHT22;36284;37.236;-121.934;2023-05-10T10:36:12;7.50;99.90
20200;DHT22;36284;37.236;-121.934;2023-05-10T10:41:33;7.40;99.90
20200;DHT22;36284;37.236;-121.934;2023-05-10T10:52:29;7.30;99.90
20200;DHT22;36284;37.236;-121.934;2023-05-10T10:55:08;7.20;99.90
20200;DHT22;36284;37.236;-121.934;2023-05-10T10:57:54;7.00;99.90
20200;DHT22;36284;37.236;-121.934;2023-05-10T11:00:31;7.00;99.90
20200;DHT22;36284;37.236;-121.934;2023-05-10T11:03:05;7.00;99.90
20200;DHT22;36284;37.236;-121.934;2023-05-10T11:08:08;6.90;99.90
20200;DHT22;36284;37.236;-121.934;2023-05-10T11:10:35;6.80;99.90
20200;DHT22;36284;37.236;-121.934;2023-05-10T11:13:07;6.70;99.90
20200;DHT22;36284;37.236;-121.934;2023-05-10T11:15:38;6.50;99.90
20200;DHT22;36284;37.236;-121.934;2023-05-10T11:18:24;6.60;99.90
20200;DHT22;36284;37.236;-121.934;2023-05-10T11:21:02;6.60;99.90
20200;DHT22;36284;37.236;-121.934;2023-05-10T11:23:52;6.50;99.90
20200;DHT22;36284;37.236;-121.934;2023-05-10T11:26:23;6.50;99.90
20200;DHT22;36284;37.236;-121.934;2023-05-10T11:28:53;6.30;99.90
20200;DHT22;36284;37.236;-121.934;2023-05-10T11:31:24;6.30;99.90
20200;DHT22;36284;37.236;-121.934;2023-05-10T11:33:57;6.40;99.90
20200;DHT22;36284;37.236;-121.934;2023-05-10T11:36:27;6.40;99.90
20200;DHT22;36284;37.236;-121.934;2023-05-10T11:38:55;6.40;99.90
20200;DHT22;36284;37.236;-121.934;2023-05-10T11:41:23;6.50;99.90
20200;DHT22;36284;37.236;-121.934;2023-05-10T11:43:52;6.50;99.90
20200;DHT22;36284;37.236;-121.934;2023-05-10T11:46:21;6.40;99.90
20200;DHT22;36284;37.236;-121.934;2023-05-10T11:48:53;6.50;99.90
20200;DHT22;36284;37.236;-121.934;2023-05-10T11:51:22;6.60;99.90
20200;DHT22;36284;37.236;-121.934;2023-05-10T11:53:52;6.60;99.90
20200;DHT22;36284;37.236;-121.934;2023-05-10T11:56:19;6.60;99.90
20200;DHT22;36284;37.236;-121.934;2023-05-10T11:58:53;6.40;99.90
20200;DHT22;36284;37.236;-121.934;2023-05-10T12:01:22;6.30;99.90
20200;DHT22;36284;37.236;-121.934;2023-05-10T12:03:50;6.30;99.90
20200;DHT22;36284;37.236;-121.934;2023-05-10T12:06:19;6.40;99.90
20200;DHT22;36284;37.236;-121.934;2023-05-10T12:08:47;6.60;99.90
20200;DHT22;36284;37.236;-121.934;2023-05-10T12:11:18;6.40;99.90
20200;DHT22;36284;37.236;-121.934;2023-05-10T12:13:47;6.50;99.90
20200;DHT22;36284;37.236;-121.934;2023-05-10T12:16:24;6.70;99.90
20200;DHT22;36284;37.236;-121.934;2023-05-10T12:18:59;6.50;99.90
20200;DHT22;36284;37.236;-121.934;2023-05-10T12:21:28;6.40;99.90
20200;DHT22;36284;37.236;-121.934;2023-05-10T12:24:02;6.60;99.90
20200;DHT22;36284;37.236;-121.934;2023-05-10T12:26:29;6.70;99.90
20200;DHT22;36284;37.236;-121.934;2023-05-10T12:29:12;6.60;99.90
20200;DHT22;36284;37.236;-121.934;2023-05-10T12:31:57;6.50;99.90
20200;DHT22;36284;37.236;-121.934;2023-05-10T12:34:32;6.40;99.90
20200;DHT22;36284;37.236;-121.934;2023-05-10T12:36:59;6.40;99.90
20200;DHT22;36284;37.236;-121.934;2023-05-10T12:39:37;6.60;99.90
20200;DHT22;36284;37.236;-121.934;2023-05-10T12:42:04;6.50;99.90
20200;DHT22;36284;37.236;-121.934;2023-05-10T12:44:31;6.50;99.90
20200;DHT22;36284;37.236;-121.934;2023-05-10T12:46:58;6.60;99.90
20200;DHT22;36284;37.236;-121.934;2023-05-10T12:49:27;6.60;99.90
20200;DHT22;36284;37.236;-121.934;2023-05-10T12:51:54;6.50;99.90
20200;DHT22;36284;37.236;-121.934;2023-05-10T12:54:21;6.60;99.90
20200;DHT22;36284;37.236;-121.934;2023-05-10T12:56:48;6.60;99.90
20200;DHT22;36284;37.236;-121.934;2023-05-10T12:59:15;6.60;99.90
20200;DHT22;36284;37.236;-121.934;2023-05-10T13:01:42;6.40;99.90
20200;DHT22;36284;37.236;-121.934;2023-05-10T13:04:09;6.40;99.90
20200;DHT22;36284;37.236;-121.934;2023-05-10T13:06:36;6.50;99.90
20200;DHT22;36284;37.236;-121.934;2023-05-10T13:09:03;6.70;99.90
20200;DHT22;36284;37.236;-121.934;2023-05-10T13:11:30;6.90;99.90
20200;DHT22;36284;37.236;-121.934;2023-05-10T13:13:57;7.00;99.90
20200;DHT22;36284;37.236;-121.934;2023-05-10T13:16:24;7.10;99.90
20200;DHT22;36284;37.236;-121.934;2023-05-10T13:18:51;7.20;99.90
20200;DHT22;36284;37.236;-121.934;2023-05-10T13:21:21;7.40;99.90
20200;DHT22;36284;37.236;-121.934;2023-05-10T13:23:48;7.50;99.90
20200;DHT22;36284;37.236;-121.934;2023-05-10T13:26:14;7.50;99.90
20200;DHT22;36284;37.236;-121.934;2023-05-10T13:28:41;7.60;99.90
20200;DHT22;36284;37.236;-121.934;2023-05-10T13:31:08;7.70;99.90
20200;DHT22;36284;37.236;-121.934;2023-05-10T13:33:35;7.90;99.90
20200;DHT22;36284;37.236;-121.934;2023-05-10T13:36:02;7.90;99.90
20200;DHT22;36284;37.236;-121.934;2023-05-10T13:38:29;8.10;99.90
20200;DHT22;36284;37.236;-121.934;2023-05-10T13:40:56;8.10;99.90
20200;DHT22;36284;37.236;-121.934;2023-05-10T13:43:24;8.20;99.90
20200;DHT22;36284;37.236;-121.934;2023-05-10T13:45:51;8.20;99.90
20200;DHT22;36284;37.236;-121.934;2023-05-10T13:48:18;8.30;99.90
20200;DHT22;36284;37.236;-121.934;2023-05-10T13:50:45;8.40;99.90
20200;DHT22;36284;37.236;-121.934;2023-05-10T13:53:12;8.40;99.90
20200;DHT22;36284;37.236;-121.934;2023-05-10T13:55:41;8.40;99.90
20200;DHT22;36284;37.236;-121.934;2023-05-10T13:58:08;8.50;99.90
20200;DHT22;36284;37.236;-121.934;2023-05-10T14:00:35;8.50;99.90
20200;DHT22;36284;37.236;-121.934;2023-05-10T14:03:02;8.60;99.90
20200;DHT22;36284;37.236;-121.934;2023-05-10T14:05:31;8.70;99.90
20200;DHT22;36284;37.236;-121.934;2023-05-10T14:07:58;8.70;99.90
20200;DHT22;36284;37.236;-121.934;2023-05-10T14:10:25;8.80;99.90
20200;DHT22;36284;37.236;-121.934;2023-05-10T14:12:51;8.80;99.90
20200;DHT22;36284;37.236;-121.934;2023-05-10T14:15:18;8.90;99.90
20200;DHT22;36284;37.236;-121.934;2023-05-10T14:17:45;8.90;99.90
20200;DHT22;36284;37.236;-121.934;2023-05-10T14:20:12;8.90;99.90
20200;DHT22;36284;37.236;-121.934;2023-05-10T14:22:39;9.00;99.90
20200;DHT22;36284;37.236;-121.934;2023-05-10T14:25:07;9.10;99.90
20200;DHT22;36284;37.236;-121.934;2023-05-10T14:27:34;9.00;99.90
20200;DHT22;36284;37.236;-121.934;2023-05-10T14:30:01;9.20;99.90
20200;DHT22;36284;37.236;-121.934;2023-05-10T14:32:27;9.40;99.90
20200;DHT22;36284;37.236;-121.934;2023-05-10T14:34:54;9.40;99.90
20200;DHT22;36284;37.236;-121.934;2023-05-10T14:37:22;9.50;99.90
20200;DHT22;36284;37.236;-121.934;2023-05-10T14:39:48;9.60;99.90
20200;DHT22;36284;37.236;-121.934;2023-05-10T14:42:18;9.70;99.90
20200;DHT22;36284;37.236;-121.934;2023-05-10T14:44:45;9.70;99.90
20200;DHT22;36284;37.236;-121.934;2023-05-10T14:47:11;9.90;99.90
20200;DHT22;36284;37.236;-121.934;2023-05-10T14:49:38;9.90;99.90
20200;DHT22;36284;37.236;-121.934;2023-05-10T14:52:06;10.10;99.90
20200;DHT22;36284;37.236;-121.934;2023-05-10T14:54:33;10.20;99.90
20200;DHT22;36284;37.236;-121.934;2023-05-10T14:57:00;10.30;99.90
20200;DHT22;36284;37.236;-121.934;2023-05-10T14:59:27;10.20;99.90
20200;DHT22;36284;37.236;-121.934;2023-05-10T15:01:53;10.40;99.90
20200;DHT22;36284;37.236;-121.934;2023-05-10T15:04:20;10.50;99.90
20200;DHT22;36284;37.236;-121.934;2023-05-10T15:06:47;10.60;99.90
20200;DHT22;36284;37.236;-121.934;2023-05-10T15:09:14;10.70;99.90
20200;DHT22;36284;37.236;-121.934;2023-05-10T15:11:42;10.80;99.90
20200;DHT22;36284;37.236;-121.934;2023-05-10T15:14:10;10.90;99.90
20200;DHT22;36284;37.236;-121.934;2023-05-10T15:16:37;11.00;99.90
20200;DHT22;36284;37.236;-121.934;2023-05-10T15:19:04;11.00;99.90
20200;DHT22;36284;37.236;-121.934;2023-05-10T15:21:31;11.20;99.90
20200;DHT22;36284;37.236;-121.934;2023-05-10T15:24:05;11.30;99.90
20200;DHT22;36284;37.236;-121.934;2023-05-10T15:26:32;11.60;99.90
20200;DHT22;36284;37.236;-121.934;2023-05-10T15:28:59;11.50;99.90
20200;DHT22;36284;37.236;-121.934;2023-05-10T15:31:26;11.70;99.90
20200;DHT22;36284;37.236;-121.934;2023-05-10T15:33:57;11.90;99.90
20200;DHT22;36284;37.236;-121.934;2023-05-10T15:36:27;12.20;99.90
20200;DHT22;36284;37.236;-121.934;2023-05-10T15:38:54;12.40;99.90
20200;DHT22;36284;37.236;-121.934;2023-05-10T15:41:22;12.20;99.90
20200;DHT22;36284;37.236;-121.934;2023-05-10T15:43:49;12.30;99.90
20200;DHT22;36284;37.236;-121.934;2023-05-10T15:46:16;12.40;99.90
20200;DHT22;36284;37.236;-121.934;2023-05-10T15:48:43;12.30;99.90